Time;durP1;ratioP1;P1;durP2;ratioP2;P2;SDS_P1;SDS_P2;PMS_P1;PMS_P2;Temp;Humidity;BMP_temperature;BMP_pressure;BME280_temperature;BME280_humidity;BME280_pressure;Samples;Min_cycle;Max_cycle;Signal;HPM_P1;HPM_P2
2020/02/21 21:02:49;;;;;;;12.9;2.4;;;;;;;24.22;32.94141;972.5577;;;;
2020/02/21 21:05:59;;;;;;;5.5;2.3;;;;;;;24.64;32.11133;972.6895;;;;
2020/02/21 21:09:08;;;;;;;7.1;2.7;;;;;;;24.26;32.57422;972.8091;;;;
2020/02/21 21:12:18;;;;;;;9.8;2.5;;;;;;;24.16;32.51953;972.7758;;;;
2020/02/21 21:15:28;;;;;;;6.3;2.6;;;;;;;24.11;32.58691;972.7811;;;;
2020/02/21 21:18:37;;;;;;;6.8;2.3;;;;;;;23.85;32.80664;972.7717;;;;
2020/02/21 21:21:46;;;;;;;7.7;2.5;;;;;;;23.75;32.91895;972.7422;;;;
2020/02/21 21:24:56;;;;;;;6;2.7;;;;;;;23.76;33.09863;972.7367;;;;
2020/02/21 21:28:05;;;;;;;4.6;2.3;;;;;;;23.76;32.94434;972.7313;;;;
2020/02/21 21:31:49;;;;;;;6.4;2.6;;;;;;;23.79;32.875;972.7255;;;;
2020/02/21 21:34:58;;;;;;;5.6;2.3;;;;;;;23.75;32.95508;972.7025;;;;
2020/02/21 21:38:33;;;;;;;4.3;2.1;;;;;;;23.73;32.97852;972.6091;;;;
2020/02/21 21:41:44;;;;;;;4.8;2.3;;;;;;;23.74;32.82324;972.6699;;;;
2020/02/21 21:44:54;;;;;;;8.2;2.7;;;;;;;23.74;32.75098;972.6776;;;;
2020/02/21 21:48:17;;;;;;;6.4;2.1;;;;;;;23.72;32.75;972.62;;;;
2020/02/21 21:51:27;;;;;;;7.9;2.4;;;;;;;23.72;32.71289;972.6254;;;;
2020/02/21 21:54:37;;;;;;;6.3;2.2;;;;;;;23.76;32.57324;972.7445;;;;
2020/02/21 21:57:46;;;;;;;0.4;0.4;;;;;;;23.77;32.70508;972.7617;;;;
2020/02/21 22:00:57;;;;;;;5.2;2.1;;;;;;;23.81;32.55273;972.7753;;;;
2020/02/21 22:04:07;;;;;;;4.4;2.4;;;;;;;23.78;32.56348;972.8117;;;;
2020/02/21 22:07:17;;;;;;;2.8;2.1;;;;;;;23.77;32.47852;972.8133;;;;
2020/02/21 22:10:28;;;;;;;5.4;2.4;;;;;;;23.72;32.42676;972.7933;;;;
2020/02/21 22:13:37;;;;;;;4.7;2.3;;;;;;;23.73;32.40332;972.8128;;;;
2020/02/21 22:16:47;;;;;;;4.2;2.3;;;;;;;23.71;32.60547;972.8647;;;;
2020/02/21 22:19:57;;;;;;;5.2;2.2;;;;;;;23.69;32.69922;972.8429;;;;
2020/02/21 22:23:07;;;;;;;3.5;2;;;;;;;23.69;32.72363;972.8561;;;;
2020/02/21 22:26:17;;;;;;;3.9;2;;;;;;;23.63;32.83887;972.8983;;;;
2020/02/21 22:29:35;;;;;;;3.9;2.1;;;;;;;23.62;32.9209;972.9844;;;;
2020/02/21 22:32:53;;;;;;;5.5;2.1;;;;;;;23.64;32.99414;972.9986;;;;
2020/02/21 22:36:11;;;;;;;3;2;;;;;;;23.68;32.83105;972.9673;;;;
2020/02/21 22:39:25;;;;;;;4.2;2;;;;;;;23.9;32.60742;972.9158;;;;
2020/02/21 22:42:41;;;;;;;4.2;2;;;;;;;23.91;32.5;972.9238;;;;
2020/02/21 22:46:06;;;;;;;2.9;2.2;;;;;;;23.85;32.53125;972.8549;;;;
2020/02/21 22:49:38;;;;;;;3.1;1.8;;;;;;;23.89;32.37988;972.838;;;;
2020/02/21 22:52:57;;;;;;;3.4;2.1;;;;;;;23.92;32.29785;972.7941;;;;
2020/02/21 22:56:36;;;;;;;2.9;2;;;;;;;23.78;32.4668;972.8211;;;;
2020/02/21 23:00:01;;;;;;;3.9;2;;;;;;;23.8;32.51563;972.769;;;;
2020/02/21 23:03:24;;;;;;;3.3;2.1;;;;;;;23.96;31.96582;972.7413;;;;
2020/02/21 23:06:34;;;;;;;2.8;1.9;;;;;;;24.1;31.86816;972.7576;;;;
2020/02/21 23:09:45;;;;;;;3.1;2;;;;;;;23.97;32.0498;972.7399;;;;
2020/02/21 23:13:04;;;;;;;2.8;1.8;;;;;;;23.93;32.07129;972.7513;;;;
2020/02/21 23:16:26;;;;;;;3.6;1.9;;;;;;;23.93;31.9873;972.676;;;;
2020/02/21 23:19:36;;;;;;;4.1;1.9;;;;;;;23.91;31.99805;972.7637;;;;
2020/02/21 23:22:47;;;;;;;2.7;1.9;;;;;;;23.9;31.99707;972.761;;;;
2020/02/21 23:25:59;;;;;;;2.7;1.9;;;;;;;23.92;31.9873;972.7661;;;;
2020/02/21 23:29:09;;;;;;;3.3;1.9;;;;;;;23.93;31.93945;972.7739;;;;
2020/02/21 23:32:42;;;;;;;2.7;1.8;;;;;;;23.9;31.90234;972.8061;;;;
2020/02/21 23:38:27;;;;;;;2.2;1.8;;;;;;;23.8;32.07324;972.6805;;;;
2020/02/21 23:41:58;;;;;;;3.9;1.8;;;;;;;23.8;32.01465;972.6051;;;;
2020/02/21 23:45:08;;;;;;;4.4;1.8;;;;;;;23.66;32.09961;972.4751;;;;
2020/02/21 23:48:19;;;;;;;2.4;1.8;;;;;;;23.7;32.11426;972.4581;;;;
2020/02/21 23:52:13;;;;;;;3.2;1.9;;;;;;;23.7;32.06738;972.4395;;;;
2020/02/21 23:55:34;;;;;;;2;1.6;;;;;;;23.72;32.04395;972.4669;;;;
2020/02/21 23:59:19;;;;;;;3.1;1.7;;;;;;;23.71;32.03223;972.4419;;;;
